Time,TemperatureF,DewpointF,PressureIn,WindDirection,WindDirectionDegrees,WindSpeedMPH,WindSpeedGustMPH,Humidity,HourlyPrecipIn,Conditions,Clouds,dailyrainin,SoftwareType,DateUTC
2013-02-05 00:00:00,16.4,1.5,29.85,WNW,293,0.0,0.2,51,0.00,,,0.00,WUHU216HW,2013-02-05 05:00:00,
2013-02-05 00:05:00,16.0,1.1,29.85,WNW,293,0.4,0.4,51,0.00,,,0.00,WUHU216HW,2013-02-05 05:05:00,
2013-02-05 00:10:00,15.5,0.9,29.85,NNW,338,0.0,0.4,52,0.00,,,0.00,WUHU216HW,2013-02-05 05:10:00,
2013-02-05 00:15:00,15.3,0.8,29.86,NNW,338,0.0,2.5,52,0.00,,,0.00,WUHU216HW,2013-02-05 05:15:00,
2013-02-05 00:20:00,15.3,1.2,29.86,NW,315,0.2,2.5,53,0.00,,,0.00,WUHU216HW,2013-02-05 05:20:00,
2013-02-05 00:25:00,15.3,1.2,29.86,East,90,0.4,0.4,53,0.00,,,0.00,WUHU216HW,2013-02-05 05:25:00,
2013-02-05 00:30:00,15.5,1.4,29.87,North,0,1.3,1.3,53,0.00,,,0.00,WUHU216HW,2013-02-05 05:30:00,
2013-02-05 00:35:00,15.7,1.5,29.87,NNW,338,0.0,1.8,53,0.00,,,0.00,WUHU216HW,2013-02-05 05:35:00,
2013-02-05 00:40:00,15.7,1.9,29.87,North,0,0.0,1.8,54,0.00,,,0.00,WUHU216HW,2013-02-05 05:40:00,
2013-02-05 00:45:00,15.8,2.1,29.87,NW,315,2.2,2.2,54,0.00,,,0.00,WUHU216HW,2013-02-05 05:45:00,
2013-02-05 00:50:00,16.2,2.4,29.87,WNW,293,1.3,2.5,54,0.00,,,0.00,WUHU216HW,2013-02-05 05:50:00,
2013-02-05 00:55:00,16.2,2.4,29.87,North,0,0.4,4.7,54,0.00,,,0.00,WUHU216HW,2013-02-05 05:55:00,
2013-02-05 01:00:00,16.4,2.5,29.87,NNW,338,2.0,4.7,54,0.00,,,0.00,WUHU216HW,2013-02-05 06:00:00,
2013-02-05 01:05:00,16.4,2.5,29.87,NNW,338,0.2,2.5,54,0.00,,,0.00,WUHU216HW,2013-02-05 06:05:00,
2013-02-05 01:10:00,16.6,2.7,29.87,North,0,0.4,2.5,54,0.00,,,0.00,WUHU216HW,2013-02-05 06:10:00,
2013-02-05 01:15:00,16.4,2.5,29.87,NNE,23,0.2,2.5,54,0.00,,,0.00,WUHU216HW,2013-02-05 06:15:00,
2013-02-05 01:20:00,16.4,2.5,29.87,WSW,248,0.0,2.5,54,0.00,,,0.00,WUHU216HW,2013-02-05 06:20:00,
2013-02-05 01:25:00,16.2,2.4,29.88,North,0,2.2,2.2,54,0.00,,,0.00,WUHU216HW,2013-02-05 06:25:00,
2013-02-05 01:30:00,16.2,2.4,29.88,NNW,338,0.2,2.2,54,0.00,,,0.00,WUHU216HW,2013-02-05 06:30:00,
2013-02-05 01:35:00,16.0,2.6,29.88,North,0,1.8,1.8,55,0.00,,,0.00,WUHU216HW,2013-02-05 06:35:00,
2013-02-05 01:40:00,15.8,2.4,29.89,North,0,0.0,2.0,55,0.00,,,0.00,WUHU216HW,2013-02-05 06:40:00,
2013-02-05 01:45:00,15.7,2.3,29.89,North,0,0.4,2.5,55,0.00,,,0.00,WUHU216HW,2013-02-05 06:45:00,
2013-02-05 01:50:00,15.7,2.3,29.89,North,0,0.7,2.5,55,0.00,,,0.00,WUHU216HW,2013-02-05 06:50:00,
2013-02-05 01:55:00,15.7,2.3,29.89,WSW,248,0.0,1.8,55,0.00,,,0.00,WUHU216HW,2013-02-05 06:55:00,
2013-02-05 02:00:00,15.5,2.1,29.89,North,0,1.3,2.5,55,0.00,,,0.00,WUHU216HW,2013-02-05 07:00:00,
2013-02-05 02:05:00,15.5,2.1,29.89,NNW,338,0.2,2.5,55,0.00,,,0.00,WUHU216HW,2013-02-05 07:05:00,
2013-02-05 02:10:00,15.5,2.1,29.89,NNW,338,0.4,1.8,55,0.00,,,0.00,WUHU216HW,2013-02-05 07:10:00,
2013-02-05 02:15:00,15.1,2.2,29.89,NNW,338,1.1,1.8,56,0.00,,,0.00,WUHU216HW,2013-02-05 07:15:00,
2013-02-05 02:20:00,15.1,2.2,29.89,NNW,338,0.0,1.1,56,0.00,,,0.00,WUHU216HW,2013-02-05 07:20:00,
2013-02-05 02:25:00,14.9,2.0,29.89,NNE,23,0.7,1.1,56,0.00,,,0.00,WUHU216HW,2013-02-05 07:25:00,
2013-02-05 02:30:00,14.8,1.8,29.90,NNW,338,0.2,1.6,56,0.00,,,0.00,WUHU216HW,2013-02-05 07:30:00,
2013-02-05 02:35:00,14.6,1.6,29.89,WNW,293,1.1,1.6,56,0.00,,,0.00,WUHU216HW,2013-02-05 07:35:00,
2013-02-05 02:40:00,14.0,1.1,29.89,WNW,293,0.0,1.1,56,0.00,,,0.00,WUHU216HW,2013-02-05 07:40:00,
2013-02-05 02:45:00,13.7,0.8,29.89,NNW,338,0.0,1.1,56,0.00,,,0.00,WUHU216HW,2013-02-05 07:45:00,
2013-02-05 02:51:00,13.3,0.8,29.89,WNW,293,0.0,0.4,57,0.00,,,0.00,WUHU216HW,2013-02-05 07:51:00,
2013-02-05 02:56:00,13.1,0.6,29.89,NNW,338,0.0,0.4,57,0.00,,,0.00,WUHU216HW,2013-02-05 07:56:00,
2013-02-05 03:01:00,12.8,0.3,29.89,NW,315,0.0,0.2,57,0.00,,,0.00,WUHU216HW,2013-02-05 08:01:00,
2013-02-05 03:06:00,12.6,0.1,29.89,NNW,338,0.0,0.0,57,0.00,,,0.00,WUHU216HW,2013-02-05 08:06:00,
2013-02-05 03:11:00,12.4,-0.1,29.89,NNW,338,0.0,0.0,57,0.00,,,0.00,WUHU216HW,2013-02-05 08:11:00,
2013-02-05 03:16:00,12.1,-0.3,29.89,NW,315,0.0,0.0,57,0.00,,,0.00,WUHU216HW,2013-02-05 08:16:00,
2013-02-05 03:21:00,11.9,-0.5,29.90,North,0,0.0,0.0,57,0.00,,,0.00,WUHU216HW,2013-02-05 08:21:00,
2013-02-05 03:26:00,11.7,-0.4,29.90,North,0,0.0,0.2,58,0.00,,,0.00,WUHU216HW,2013-02-05 08:26:00,
2013-02-05 03:31:00,11.3,-0.6,29.90,NNW,338,0.0,0.2,58,0.00,,,0.00,WUHU216HW,2013-02-05 08:31:00,
2013-02-05 03:36:00,11.2,-0.8,29.90,North,0,0.0,0.2,58,0.00,,,0.00,WUHU216HW,2013-02-05 08:36:00,
2013-02-05 03:41:00,11.0,-1.7,29.90,NNE,23,0.0,0.0,56,0.00,,,0.00,WUHU216HW,2013-02-05 08:41:00,
2013-02-05 03:46:00,11.0,-1.3,29.90,ENE,68,0.0,0.0,57,0.00,,,0.00,WUHU216HW,2013-02-05 08:46:00,
2013-02-05 03:51:00,11.2,-1.2,29.90,ENE,68,0.0,0.0,57,0.00,,,0.00,WUHU216HW,2013-02-05 08:51:00,
2013-02-05 03:56:00,11.2,-1.2,29.90,NNW,338,0.2,0.2,57,0.00,,,0.00,WUHU216HW,2013-02-05 08:56:00,
2013-02-05 04:01:00,11.0,-1.7,29.90,NNW,338,0.0,0.2,56,0.00,,,0.00,WUHU216HW,2013-02-05 09:01:00,
2013-02-05 04:06:00,10.8,-1.9,29.90,NNE,23,0.0,0.4,56,0.00,,,0.00,WUHU216HW,2013-02-05 09:06:00,
2013-02-05 04:11:00,10.8,-2.2,29.90,North,0,0.0,0.4,55,0.00,,,0.00,WUHU216HW,2013-02-05 09:11:00,
2013-02-05 04:16:00,10.8,-2.2,29.90,North,0,0.0,0.0,55,0.00,,,0.00,WUHU216HW,2013-02-05 09:16:00,
2013-02-05 04:21:00,10.8,-2.2,29.90,NNE,23,0.2,0.2,55,0.00,,,0.00,WUHU216HW,2013-02-05 09:21:00,
2013-02-05 04:26:00,10.8,-2.7,29.90,North,0,0.0,0.2,54,0.00,,,0.00,WUHU216HW,2013-02-05 09:26:00,
2013-02-05 04:31:00,10.6,-2.8,29.91,NNE,23,0.0,0.0,54,0.00,,,0.00,WUHU216HW,2013-02-05 09:31:00,
2013-02-05 04:36:00,10.6,-2.8,29.90,NNW,338,0.0,0.0,54,0.00,,,0.00,WUHU216HW,2013-02-05 09:36:00,
2013-02-05 04:41:00,10.6,-2.8,29.91,NNE,23,0.0,0.0,54,0.00,,,0.00,WUHU216HW,2013-02-05 09:41:00,
2013-02-05 04:46:00,10.6,-2.8,29.91,NNE,23,0.0,0.0,54,0.00,,,0.00,WUHU216HW,2013-02-05 09:46:00,
2013-02-05 04:51:00,10.4,-3.0,29.91,WNW,293,0.0,0.0,54,0.00,,,0.00,WUHU216HW,2013-02-05 09:51:00,
2013-02-05 04:56:00,10.1,-3.3,29.91,NNE,23,0.0,0.0,54,0.00,,,0.00,WUHU216HW,2013-02-05 09:56:00,
2013-02-05 05:01:00,10.1,-3.3,29.91,North,0,0.0,0.0,54,0.00,,,0.00,WUHU216HW,2013-02-05 10:01:00,
2013-02-05 05:06:00,10.1,-3.3,29.92,NE,45,0.0,0.0,54,0.00,,,0.00,WUHU216HW,2013-02-05 10:06:00,
2013-02-05 05:11:00,9.9,-3.9,29.92,NNE,23,0.0,0.0,53,0.00,,,0.00,WUHU216HW,2013-02-05 10:11:00,
2013-02-05 05:16:00,9.7,-4.9,29.92,NE,45,0.0,0.0,51,0.00,,,0.00,WUHU216HW,2013-02-05 10:16:00,
2013-02-05 05:21:00,9.7,-4.5,29.92,North,0,0.0,0.2,52,0.00,,,0.00,WUHU216HW,2013-02-05 10:21:00,
2013-02-05 05:26:00,9.7,-4.5,29.92,NNE,23,0.0,0.2,52,0.00,,,0.00,WUHU216HW,2013-02-05 10:26:00,
2013-02-05 05:31:00,9.5,-4.2,29.92,NNE,23,0.0,0.0,53,0.00,,,0.00,WUHU216HW,2013-02-05 10:31:00,
2013-02-05 05:36:00,9.2,-5.8,29.92,NNE,23,0.0,0.0,50,0.00,,,0.00,WUHU216HW,2013-02-05 10:36:00,
2013-02-05 05:41:00,9.0,-6.4,29.91,NNE,23,0.0,0.0,49,0.00,,,0.00,WUHU216HW,2013-02-05 10:41:00,
2013-02-05 05:46:00,9.0,-6.4,29.91,NNE,23,0.0,0.0,49,0.00,,,0.00,WUHU216HW,2013-02-05 10:46:00,
2013-02-05 05:51:00,9.2,-5.8,29.91,North,0,0.0,0.0,50,0.00,,,0.00,WUHU216HW,2013-02-05 10:51:00,
2013-02-05 05:56:00,9.2,-5.8,29.91,NNW,338,0.0,0.0,50,0.00,,,0.00,WUHU216HW,2013-02-05 10:56:00,
2013-02-05 06:01:00,9.0,-5.6,29.92,WNW,293,0.0,0.0,51,0.00,,,0.00,WUHU216HW,2013-02-05 11:01:00,
2013-02-05 06:06:00,8.8,-5.4,29.92,North,0,0.0,0.0,52,0.00,,,0.00,WUHU216HW,2013-02-05 11:06:00,
2013-02-05 06:11:00,8.5,-6.5,29.92,NNE,23,0.0,0.0,50,0.00,,,0.00,WUHU216HW,2013-02-05 11:11:00,
2013-02-05 06:16:00,8.3,-7.1,29.92,NNE,23,0.0,0.0,49,0.00,,,0.00,WUHU216HW,2013-02-05 11:16:00,
2013-02-05 06:21:00,8.3,-6.7,29.92,WNW,293,0.0,0.0,50,0.00,,,0.00,WUHU216HW,2013-02-05 11:21:00,
2013-02-05 06:26:00,8.1,-6.7,29.92,NNW,338,0.0,0.0,50,0.00,,,0.00,WUHU216HW,2013-02-05 11:26:00,
2013-02-05 06:31:00,8.1,-9.4,29.93,NE,45,0.0,0.0,44,0.00,,,0.00,WUHU216HW,2013-02-05 11:31:00,
2013-02-05 06:36:00,8.3,-8.9,29.93,NNE,23,0.0,0.0,45,0.00,,,0.00,WUHU216HW,2013-02-05 11:36:00,
2013-02-05 06:41:00,8.3,-8.0,29.93,North,0,0.0,0.0,47,0.00,,,0.00,WUHU216HW,2013-02-05 11:41:00,
2013-02-05 06:46:00,8.3,-8.0,29.93,North,0,0.0,0.0,47,0.00,,,0.00,WUHU216HW,2013-02-05 11:46:00,
2013-02-05 06:51:00,8.3,-8.5,29.93,NNE,23,0.0,0.0,46,0.00,,,0.00,WUHU216HW,2013-02-05 11:51:00,
2013-02-05 06:56:00,8.3,-10.7,29.93,NNE,23,0.0,0.0,41,0.00,,,0.00,WUHU216HW,2013-02-05 11:56:00,
2013-02-05 07:01:00,8.3,-10.3,29.94,NE,45,0.0,0.0,42,0.00,,,0.00,WUHU216HW,2013-02-05 12:01:00,
2013-02-05 07:06:00,8.3,-9.8,29.94,NNE,23,0.0,0.0,43,0.00,,,0.00,WUHU216HW,2013-02-05 12:06:00,
2013-02-05 07:11:00,8.3,-9.8,29.94,SSW,203,0.0,0.2,43,0.00,,,0.00,WUHU216HW,2013-02-05 12:11:00,
2013-02-05 07:16:00,8.1,-9.4,29.95,SSW,203,0.0,0.2,44,0.00,,,0.00,WUHU216HW,2013-02-05 12:16:00,
2013-02-05 07:21:00,7.9,-9.2,29.95,SW,225,0.0,0.2,45,0.00,,,0.00,WUHU216HW,2013-02-05 12:21:00,
2013-02-05 07:26:00,7.7,-9.4,29.95,SSW,203,0.0,0.9,45,0.00,,,0.00,WUHU216HW,2013-02-05 12:26:00,
2013-02-05 07:31:00,7.7,-9.4,29.95,SSW,203,0.0,0.9,45,0.00,,,0.00,WUHU216HW,2013-02-05 12:31:00,
2013-02-05 07:36:00,7.9,-9.6,29.95,SSW,203,0.0,0.0,44,0.00,,,0.00,WUHU216HW,2013-02-05 12:36:00,
2013-02-05 07:41:00,7.9,-9.6,29.95,SSE,158,0.0,0.0,44,0.00,,,0.00,WUHU216HW,2013-02-05 12:41:00,
2013-02-05 07:46:00,8.5,-10.1,29.96,SSE,158,0.0,0.0,42,0.00,,,0.00,WUHU216HW,2013-02-05 12:46:00,
2013-02-05 07:51:00,9.0,-10.4,29.96,SSW,203,0.0,0.0,40,0.00,,,0.00,WUHU216HW,2013-02-05 12:51:00,
2013-02-05 07:56:00,9.7,-12.1,29.96,NE,45,0.2,0.4,36,0.00,,,0.00,WUHU216HW,2013-02-05 12:56:00,
2013-02-05 08:01:00,10.8,-13.5,29.96,North,0,0.0,0.4,32,0.00,,,0.00,WUHU216HW,2013-02-05 13:01:00,
2013-02-05 08:06:00,11.5,-12.8,29.97,NNE,23,0.0,0.2,32,0.00,,,0.00,WUHU216HW,2013-02-05 13:06:00,
2013-02-05 08:11:00,12.1,-11.1,29.97,NNE,23,0.0,0.2,34,0.00,,,0.00,WUHU216HW,2013-02-05 13:11:00,
2013-02-05 08:16:00,12.6,-10.7,29.98,NNE,23,0.0,0.2,34,0.00,,,0.00,WUHU216HW,2013-02-05 13:16:00,
2013-02-05 08:21:00,13.0,-9.8,29.98,NNW,338,0.0,0.2,35,0.00,,,0.00,WUHU216HW,2013-02-05 13:21:00,
2013-02-05 08:26:00,13.3,-8.9,29.98,ENE,68,0.0,0.0,36,0.00,,,0.00,WUHU216HW,2013-02-05 13:26:00,
2013-02-05 08:31:00,13.7,-8.0,29.98,ENE,68,0.0,0.0,37,0.00,,,0.00,WUHU216HW,2013-02-05 13:31:00,
2013-02-05 08:36:00,14.0,-6.5,29.98,ENE,68,0.0,0.0,39,0.00,,,0.00,WUHU216HW,2013-02-05 13:36:00,
2013-02-05 08:41:00,14.4,-5.6,29.98,NNE,23,0.0,0.2,40,0.00,,,0.00,WUHU216HW,2013-02-05 13:41:00,
2013-02-05 08:46:00,14.8,-5.3,29.98,North,0,0.0,0.2,40,0.00,,,0.00,WUHU216HW,2013-02-05 13:46:00,
2013-02-05 08:51:00,15.1,-4.0,29.98,NE,45,1.1,1.1,42,0.00,,,0.00,WUHU216HW,2013-02-05 13:51:00,
2013-02-05 08:56:00,15.5,-3.2,29.98,SSE,158,0.0,1.1,43,0.00,,,0.00,WUHU216HW,2013-02-05 13:56:00,
2013-02-05 09:01:00,15.5,-2.7,29.98,NNE,23,0.4,0.9,44,0.00,,,0.00,WUHU216HW,2013-02-05 14:01:00,
2013-02-05 09:06:00,15.7,-1.6,29.99,NNW,338,0.0,0.4,46,0.00,,,0.00,WUHU216HW,2013-02-05 14:06:00,
2013-02-05 09:11:00,16.2,-0.5,29.99,North,0,0.0,0.7,47,0.00,,,0.00,WUHU216HW,2013-02-05 14:11:00,
2013-02-05 09:16:00,16.4,-0.9,29.99,North,0,0.0,0.9,46,0.00,,,0.00,WUHU216HW,2013-02-05 14:16:00,
2013-02-05 09:21:00,16.9,0.1,29.98,NE,45,1.1,1.1,47,0.00,,,0.00,WUHU216HW,2013-02-05 14:21:00,
2013-02-05 09:26:00,17.6,1.3,29.99,WSW,248,0.0,2.0,48,0.00,,,0.00,WUHU216HW,2013-02-05 14:26:00,
2013-02-05 09:31:00,18.4,1.9,29.98,SE,135,0.4,2.0,48,0.00,,,0.00,WUHU216HW,2013-02-05 14:31:00,
2013-02-05 09:36:00,19.3,4.4,29.98,NNE,23,1.3,1.6,52,0.00,,,0.00,WUHU216HW,2013-02-05 14:36:00,
2013-02-05 09:41:00,20.0,5.5,29.98,WNW,293,1.1,6.0,53,0.00,,,0.00,WUHU216HW,2013-02-05 14:41:00,
2013-02-05 09:46:00,20.5,6.4,29.98,NE,45,3.4,6.0,54,0.00,,,0.00,WUHU216HW,2013-02-05 14:46:00,
2013-02-05 09:51:00,20.7,6.1,29.98,North,0,0.0,4.5,53,0.00,,,0.00,WUHU216HW,2013-02-05 14:51:00,
2013-02-05 09:56:00,21.2,7.5,29.98,NE,45,3.8,3.8,55,0.00,,,0.00,WUHU216HW,2013-02-05 14:56:00,
2013-02-05 10:01:00,21.4,7.2,29.98,NNE,23,4.7,6.7,54,0.00,,,0.00,WUHU216HW,2013-02-05 15:01:00,
2013-02-05 10:06:00,21.8,8.0,29.98,North,0,2.0,6.7,55,0.00,,,0.00,WUHU216HW,2013-02-05 15:06:00,
2013-02-05 10:11:00,22.0,7.4,29.98,NNE,23,4.9,4.9,53,0.00,,,0.00,WUHU216HW,2013-02-05 15:11:00,
2013-02-05 10:16:00,22.0,7.7,29.98,ENE,68,5.4,5.4,54,0.00,,,0.00,WUHU216HW,2013-02-05 15:16:00,
2013-02-05 10:21:00,22.3,7.7,29.98,ENE,68,0.2,5.4,53,0.00,,,0.00,WUHU216HW,2013-02-05 15:21:00,
2013-02-05 10:26:00,22.7,7.7,29.99,NNW,338,0.0,2.5,52,0.00,,,0.00,WUHU216HW,2013-02-05 15:26:00,
2013-02-05 10:31:00,23.4,7.9,29.99,East,90,1.3,1.3,51,0.00,,,0.00,WUHU216HW,2013-02-05 15:31:00,
2013-02-05 10:36:00,23.9,8.4,29.99,WNW,293,2.9,3.8,51,0.00,,,0.00,WUHU216HW,2013-02-05 15:36:00,
2013-02-05 10:41:00,24.1,8.6,29.99,NNW,338,1.3,3.8,51,0.00,,,0.00,WUHU216HW,2013-02-05 15:41:00,
2013-02-05 10:46:00,24.1,8.6,29.99,NNE,23,2.0,3.6,51,0.00,,,0.00,WUHU216HW,2013-02-05 15:46:00,
2013-02-05 10:51:00,24.3,7.8,29.99,North,0,1.8,6.7,49,0.00,,,0.00,WUHU216HW,2013-02-05 15:51:00,
2013-02-05 10:56:00,24.1,6.8,29.99,North,0,1.1,6.7,47,0.00,,,0.00,WUHU216HW,2013-02-05 15:56:00,
2013-02-05 11:01:00,24.3,8.4,29.98,WSW,248,0.0,6.5,50,0.00,,,0.00,WUHU216HW,2013-02-05 16:01:00,
2013-02-05 11:06:00,24.3,6.8,29.98,NNE,23,4.0,4.9,47,0.00,,,0.00,WUHU216HW,2013-02-05 16:06:00,
2013-02-05 11:11:00,24.3,7.8,29.98,ENE,68,0.7,4.7,49,0.00,,,0.00,WUHU216HW,2013-02-05 16:11:00,
2013-02-05 11:16:00,24.3,7.8,29.98,North,0,0.4,3.6,49,0.00,,,0.00,WUHU216HW,2013-02-05 16:16:00,
2013-02-05 11:21:00,24.8,8.4,29.98,North,0,0.0,5.6,49,0.00,,,0.00,WUHU216HW,2013-02-05 16:21:00,
2013-02-05 11:26:00,24.8,7.4,29.98,ENE,68,1.1,6.5,47,0.00,,,0.00,WUHU216HW,2013-02-05 16:26:00,
2013-02-05 11:31:00,24.8,7.8,29.98,North,0,0.4,6.5,48,0.00,,,0.00,WUHU216HW,2013-02-05 16:31:00,
2013-02-05 11:36:00,25.4,8.4,29.97,NE,45,0.0,3.4,48,0.00,,,0.00,WUHU216HW,2013-02-05 16:36:00,
2013-02-05 11:41:00,26.1,9.0,29.98,West,270,0.0,3.6,48,0.00,,,0.00,WUHU216HW,2013-02-05 16:41:00,
2013-02-05 11:46:00,26.3,9.2,29.97,SE,135,0.7,3.6,48,0.00,,,0.00,WUHU216HW,2013-02-05 16:46:00,
2013-02-05 11:51:00,26.1,8.5,29.97,NNW,338,0.0,2.7,47,0.00,,,0.00,WUHU216HW,2013-02-05 16:51:00,
2013-02-05 11:56:00,26.3,9.2,29.96,NNE,23,5.1,5.1,48,0.00,,,0.00,WUHU216HW,2013-02-05 16:56:00,
2013-02-05 12:01:00,26.6,9.0,29.96,WNW,293,2.5,5.1,47,0.00,,,0.00,WUHU216HW,2013-02-05 17:01:00,
2013-02-05 12:06:00,27.0,9.8,29.96,North,0,0.9,4.7,48,0.00,,,0.00,WUHU216HW,2013-02-05 17:06:00,
2013-02-05 12:11:00,27.0,9.4,29.95,NW,315,0.4,5.6,47,0.00,,,0.00,WUHU216HW,2013-02-05 17:11:00,
2013-02-05 12:16:00,27.0,9.4,29.95,WNW,293,0.2,5.6,47,0.00,,,0.00,WUHU216HW,2013-02-05 17:16:00,
2013-02-05 12:21:00,27.2,9.6,29.95,NNW,338,2.2,3.1,47,0.00,,,0.00,WUHU216HW,2013-02-05 17:21:00,
2013-02-05 12:26:00,26.8,8.6,29.95,SE,135,0.7,3.1,46,0.00,,,0.00,WUHU216HW,2013-02-05 17:26:00,
2013-02-05 12:31:00,27.0,8.8,29.95,SW,225,0.0,2.9,46,0.00,,,0.00,WUHU216HW,2013-02-05 17:31:00,
2013-02-05 12:36:00,27.2,9.6,29.95,NNW,338,4.0,4.0,47,0.00,,,0.00,WUHU216HW,2013-02-05 17:36:00,
2013-02-05 12:41:00,27.0,8.8,29.95,WNW,293,1.8,4.0,46,0.00,,,0.00,WUHU216HW,2013-02-05 17:41:00,
2013-02-05 12:46:00,27.0,9.4,29.95,North,0,0.9,3.4,47,0.00,,,0.00,WUHU216HW,2013-02-05 17:46:00,
2013-02-05 12:51:00,27.0,8.8,29.95,WNW,293,0.0,2.5,46,0.00,,,0.00,WUHU216HW,2013-02-05 17:51:00,
2013-02-05 12:56:00,27.0,8.8,29.95,North,0,0.9,2.5,46,0.00,,,0.00,WUHU216HW,2013-02-05 17:56:00,
2013-02-05 13:01:00,27.0,8.8,29.95,ENE,68,0.0,2.5,46,0.00,,,0.00,WUHU216HW,2013-02-05 18:01:00,
2013-02-05 13:06:00,27.0,9.4,29.95,ENE,68,1.1,1.8,47,0.00,,,0.00,WUHU216HW,2013-02-05 18:06:00,
2013-02-05 13:11:00,27.0,8.8,29.95,SE,135,0.4,2.5,46,0.00,,,0.00,WUHU216HW,2013-02-05 18:11:00,
2013-02-05 13:16:00,26.8,8.6,29.94,NE,45,1.6,2.5,46,0.00,,,0.00,WUHU216HW,2013-02-05 18:16:00,
2013-02-05 13:21:00,26.8,8.6,29.94,NNE,23,1.6,2.7,46,0.00,,,0.00,WUHU216HW,2013-02-05 18:21:00,
2013-02-05 13:26:00,27.0,8.8,29.94,NNE,23,1.3,2.7,46,0.00,,,0.00,WUHU216HW,2013-02-05 18:26:00,
2013-02-05 13:31:00,27.0,8.8,29.93,South,180,0.0,2.7,46,0.00,,,0.00,WUHU216HW,2013-02-05 18:31:00,
2013-02-05 13:36:00,27.2,9.6,29.93,West,270,0.2,0.9,47,0.00,,,0.00,WUHU216HW,2013-02-05 18:36:00,
2013-02-05 13:41:00,27.5,9.8,29.93,SSW,203,0.0,1.1,47,0.00,,,0.00,WUHU216HW,2013-02-05 18:41:00,
2013-02-05 13:46:00,27.7,9.6,29.93,WSW,248,0.7,1.1,46,0.00,,,0.00,WUHU216HW,2013-02-05 18:46:00,
2013-02-05 13:51:00,28.3,9.5,29.93,West,270,2.2,2.2,45,0.00,,,0.00,WUHU216HW,2013-02-05 18:51:00,
2013-02-05 13:56:00,28.4,9.7,29.93,NW,315,1.6,2.2,45,0.00,,,0.00,WUHU216HW,2013-02-05 18:56:00,
2013-02-05 14:01:00,28.4,10.3,29.93,WSW,248,0.4,1.8,46,0.00,,,0.00,WUHU216HW,2013-02-05 19:01:00,
2013-02-05 14:06:00,28.4,10.3,29.93,West,270,0.0,1.8,46,0.00,,,0.00,WUHU216HW,2013-02-05 19:06:00,
2013-02-05 14:11:00,28.3,9.5,29.93,WSW,248,0.0,1.1,45,0.00,,,0.00,WUHU216HW,2013-02-05 19:11:00,
2013-02-05 14:16:00,28.1,9.9,29.93,SSW,203,1.1,2.5,46,0.00,,,0.00,WUHU216HW,2013-02-05 19:16:00,
2013-02-05 14:21:00,27.7,9.6,29.94,WNW,293,0.2,2.5,46,0.00,,,0.00,WUHU216HW,2013-02-05 19:21:00,
2013-02-05 14:27:00,27.4,9.2,29.94,South,180,1.1,2.9,46,0.00,,,0.00,WUHU216HW,2013-02-05 19:27:00,
2013-02-05 14:32:00,27.5,9.4,29.93,SE,135,0.9,1.8,46,0.00,,,0.00,WUHU216HW,2013-02-05 19:32:00,
2013-02-05 14:37:00,27.4,9.2,29.94,SW,225,2.0,2.0,46,0.00,,,0.00,WUHU216HW,2013-02-05 19:37:00,
2013-02-05 14:42:00,27.5,9.4,29.93,NNW,338,0.0,2.0,46,0.00,,,0.00,WUHU216HW,2013-02-05 19:42:00,
2013-02-05 14:47:00,27.9,9.7,29.93,North,0,0.2,1.8,46,0.00,,,0.00,WUHU216HW,2013-02-05 19:47:00,
2013-02-05 14:52:00,28.1,9.9,29.93,SSW,203,0.0,0.4,46,0.00,,,0.00,WUHU216HW,2013-02-05 19:52:00,
2013-02-05 14:57:00,28.4,10.7,29.94,WNW,293,1.8,1.8,47,0.00,,,0.00,WUHU216HW,2013-02-05 19:57:00,
2013-02-05 15:02:00,28.6,10.4,29.93,SW,225,1.6,1.8,46,0.00,,,0.00,WUHU216HW,2013-02-05 20:02:00,
2013-02-05 15:07:00,28.4,10.3,29.93,SSW,203,1.8,1.8,46,0.00,,,0.00,WUHU216HW,2013-02-05 20:07:00,
2013-02-05 15:12:00,28.4,10.3,29.93,WSW,248,0.0,1.8,46,0.00,,,0.00,WUHU216HW,2013-02-05 20:12:00,
2013-02-05 15:17:00,28.1,10.4,29.92,SW,225,0.0,1.8,47,0.00,,,0.00,WUHU216HW,2013-02-05 20:17:00,
2013-02-05 15:22:00,27.7,10.0,29.92,WSW,248,0.0,0.9,47,0.00,,,0.00,WUHU216HW,2013-02-05 20:22:00,
2013-02-05 15:27:00,27.5,9.8,29.92,West,270,0.0,0.4,47,0.00,,,0.00,WUHU216HW,2013-02-05 20:27:00,
2013-02-05 15:32:00,27.4,9.7,29.92,SSE,158,0.4,0.9,47,0.00,,,0.00,WUHU216HW,2013-02-05 20:32:00,
2013-02-05 15:37:00,27.2,9.6,29.92,SW,225,0.2,1.1,47,0.00,,,0.00,WUHU216HW,2013-02-05 20:37:00,
2013-02-05 15:42:00,27.0,9.4,29.92,South,180,1.3,1.8,47,0.00,,,0.00,WUHU216HW,2013-02-05 20:42:00,
2013-02-05 15:47:00,27.0,9.4,29.92,SW,225,0.0,1.8,47,0.00,,,0.00,WUHU216HW,2013-02-05 20:47:00,
2013-02-05 15:52:00,27.0,9.8,29.92,SSW,203,0.2,1.6,48,0.00,,,0.00,WUHU216HW,2013-02-05 20:52:00,
2013-02-05 15:57:00,27.0,9.8,29.91,SW,225,0.0,0.9,48,0.00,,,0.00,WUHU216HW,2013-02-05 20:57:00,
2013-02-05 16:02:00,27.0,9.8,29.91,SW,225,0.0,0.9,48,0.00,,,0.00,WUHU216HW,2013-02-05 21:02:00,
2013-02-05 16:07:00,27.0,9.8,29.91,SSE,158,0.4,1.1,48,0.00,,,0.00,WUHU216HW,2013-02-05 21:07:00,
2013-02-05 16:14:00,26.8,9.6,29.91,WSW,248,0.7,2.0,48,0.00,,,0.00,WUHU216HW,2013-02-05 21:14:00,
2013-02-05 16:19:00,26.8,9.6,29.91,SW,225,2.5,2.5,48,0.00,,,0.00,WUHU216HW,2013-02-05 21:19:00,
2013-02-05 16:24:00,26.6,9.5,29.91,SW,225,1.1,2.5,48,0.00,,,0.00,WUHU216HW,2013-02-05 21:24:00,
2013-02-05 16:29:00,26.3,9.2,29.91,SSW,203,0.2,2.5,48,0.00,,,0.00,WUHU216HW,2013-02-05 21:29:00,
2013-02-05 16:34:00,26.1,9.0,29.91,SSW,203,0.2,1.1,48,0.00,,,0.00,WUHU216HW,2013-02-05 21:34:00,
2013-02-05 16:39:00,25.9,8.8,29.91,SSW,203,0.0,1.1,48,0.00,,,0.00,WUHU216HW,2013-02-05 21:39:00,
2013-02-05 16:44:00,25.6,8.5,29.91,SW,225,0.0,0.7,48,0.00,,,0.00,WUHU216HW,2013-02-05 21:44:00,
2013-02-05 16:49:00,25.4,8.4,29.91,SSW,203,0.4,0.4,48,0.00,,,0.00,WUHU216HW,2013-02-05 21:49:00,
2013-02-05 16:54:00,25.0,8.5,29.91,SSW,203,0.7,0.7,49,0.00,,,0.00,WUHU216HW,2013-02-05 21:54:00,
2013-02-05 16:59:00,24.8,8.4,29.91,SW,225,0.0,0.7,49,0.00,,,0.00,WUHU216HW,2013-02-05 21:59:00,
2013-02-05 17:04:00,24.7,8.2,29.92,SW,225,0.9,0.9,49,0.00,,,0.00,WUHU216HW,2013-02-05 22:04:00,
2013-02-05 17:09:00,24.5,8.5,29.91,SW,225,1.8,7.6,50,0.00,,,0.00,WUHU216HW,2013-02-05 22:09:00,
2013-02-05 17:14:00,24.5,8.5,29.91,SSW,203,1.8,7.6,50,0.00,,,0.00,WUHU216HW,2013-02-05 22:14:00,
2013-02-05 17:19:00,24.5,8.5,29.91,SSW,203,1.8,2.9,50,0.00,,,0.00,WUHU216HW,2013-02-05 22:19:00,
2013-02-05 17:24:00,24.5,8.5,29.92,SW,225,1.8,2.5,50,0.00,,,0.00,WUHU216HW,2013-02-05 22:24:00,
2013-02-05 17:30:00,24.5,8.5,29.91,SW,225,2.0,2.5,50,0.00,,,0.00,WUHU216HW,2013-02-05 22:30:00,
2013-02-05 17:35:00,24.3,8.4,29.91,SSW,203,1.8,2.5,50,0.00,,,0.00,WUHU216HW,2013-02-05 22:35:00,
2013-02-05 17:40:00,24.1,8.6,29.91,SSW,203,1.3,2.0,51,0.00,,,0.00,WUHU216HW,2013-02-05 22:40:00,
2013-02-05 17:45:00,24.1,8.6,29.91,SW,225,0.9,1.3,51,0.00,,,0.00,WUHU216HW,2013-02-05 22:45:00,
2013-02-05 17:50:00,24.1,8.6,29.91,SW,225,0.4,1.3,51,0.00,,,0.00,WUHU216HW,2013-02-05 22:50:00,
2013-02-05 17:55:00,23.9,8.4,29.91,SSW,203,0.9,1.1,51,0.00,,,0.00,WUHU216HW,2013-02-05 22:55:00,
2013-02-05 18:00:00,23.8,8.3,29.90,SSW,203,1.3,2.9,51,0.00,,,0.00,WUHU216HW,2013-02-05 23:00:00,
2013-02-05 18:05:00,23.8,8.6,29.90,SSW,203,1.1,2.9,52,0.00,,,0.00,WUHU216HW,2013-02-05 23:05:00,
2013-02-05 18:10:00,23.6,8.5,29.90,SW,225,1.1,1.6,52,0.00,,,0.00,WUHU216HW,2013-02-05 23:10:00,
2013-02-05 18:15:00,23.6,8.5,29.91,SW,225,0.4,1.1,52,0.00,,,0.00,WUHU216HW,2013-02-05 23:15:00,
2013-02-05 18:20:00,23.4,8.3,29.91,SW,225,0.0,1.1,52,0.00,,,0.00,WUHU216HW,2013-02-05 23:20:00,
2013-02-05 18:25:00,23.2,8.2,29.91,SSW,203,0.7,1.1,52,0.00,,,0.00,WUHU216HW,2013-02-05 23:25:00,
2013-02-05 18:30:00,23.0,8.0,29.91,SW,225,0.2,0.9,52,0.00,,,0.00,WUHU216HW,2013-02-05 23:30:00,
2013-02-05 18:35:00,23.0,8.4,29.91,SSW,203,0.2,0.7,53,0.00,,,0.00,WUHU216HW,2013-02-05 23:35:00,
2013-02-05 18:40:00,22.9,8.2,29.91,SW,225,0.7,1.1,53,0.00,,,0.00,WUHU216HW,2013-02-05 23:40:00,
2013-02-05 18:45:00,22.9,8.2,29.92,SSW,203,0.2,1.1,53,0.00,,,0.00,WUHU216HW,2013-02-05 23:45:00,
2013-02-05 18:50:00,22.7,8.0,29.92,WSW,248,0.0,0.7,53,0.00,,,0.00,WUHU216HW,2013-02-05 23:50:00,
2013-02-05 18:55:00,22.5,7.8,29.92,SSW,203,0.0,0.7,53,0.00,,,0.00,WUHU216HW,2013-02-05 23:55:00,
2013-02-05 19:00:00,22.1,7.6,29.92,SSW,203,0.0,0.9,53,0.00,,,0.00,WUHU216HW,2013-02-06 00:00:00,
2013-02-05 19:05:00,22.0,7.7,29.92,SW,225,0.0,0.9,54,0.00,,,0.00,WUHU216HW,2013-02-06 00:05:00,
2013-02-05 19:10:00,21.8,7.6,29.92,SSW,203,0.9,0.9,54,0.00,,,0.00,WUHU216HW,2013-02-06 00:10:00,
2013-02-05 19:15:00,21.8,7.6,29.92,SSW,203,0.0,0.9,54,0.00,,,0.00,WUHU216HW,2013-02-06 00:15:00,
2013-02-05 19:20:00,21.6,7.4,29.92,SSW,203,0.2,0.4,54,0.00,,,0.00,WUHU216HW,2013-02-06 00:20:00,
2013-02-05 19:25:00,21.6,7.4,29.92,SW,225,0.0,0.4,54,0.00,,,0.00,WUHU216HW,2013-02-06 00:25:00,
2013-02-05 19:30:00,21.4,7.2,29.92,SW,225,0.0,0.4,54,0.00,,,0.00,WUHU216HW,2013-02-06 00:30:00,
2013-02-05 19:35:00,21.2,7.5,29.92,SW,225,0.0,0.4,55,0.00,,,0.00,WUHU216HW,2013-02-06 00:35:00,
2013-02-05 19:40:00,21.2,7.5,29.92,SSW,203,0.0,0.0,55,0.00,,,0.00,WUHU216HW,2013-02-06 00:40:00,
2013-02-05 19:45:00,20.9,7.1,29.91,SSW,203,0.0,0.2,55,0.00,,,0.00,WUHU216HW,2013-02-06 00:45:00,
2013-02-05 19:50:00,20.5,6.8,29.91,SW,225,0.0,0.0,55,0.00,,,0.00,WUHU216HW,2013-02-06 00:50:00,
2013-02-05 19:55:00,20.3,6.7,29.92,SW,225,0.0,0.0,55,0.00,,,0.00,WUHU216HW,2013-02-06 00:55:00,
2013-02-05 20:00:00,20.0,6.3,29.91,SW,225,0.0,0.0,55,0.00,,,0.00,WUHU216HW,2013-02-06 01:00:00,
2013-02-05 20:05:00,19.8,6.1,29.92,SW,225,0.0,0.0,55,0.00,,,0.00,WUHU216HW,2013-02-06 01:05:00,
2013-02-05 20:10:00,19.4,5.8,29.92,SW,225,0.0,0.0,55,0.00,,,0.00,WUHU216HW,2013-02-06 01:10:00,
2013-02-05 20:15:00,19.3,5.6,29.92,SW,225,0.0,0.0,55,0.00,,,0.00,WUHU216HW,2013-02-06 01:15:00,
2013-02-05 20:20:00,19.1,5.4,29.91,SW,225,0.0,0.0,55,0.00,,,0.00,WUHU216HW,2013-02-06 01:20:00,
2013-02-05 20:25:00,19.1,4.7,29.91,SW,225,0.0,0.0,53,0.00,,,0.00,WUHU216HW,2013-02-06 01:25:00,
2013-02-05 20:30:00,18.9,4.1,29.92,NNE,23,0.0,0.0,52,0.00,,,0.00,WUHU216HW,2013-02-06 01:30:00,
2013-02-05 20:35:00,18.9,4.1,29.92,NNE,23,0.0,0.0,52,0.00,,,0.00,WUHU216HW,2013-02-06 01:35:00,
2013-02-05 20:40:00,19.1,4.7,29.92,NNE,23,0.0,0.0,53,0.00,,,0.00,WUHU216HW,2013-02-06 01:40:00,
2013-02-05 20:45:00,19.3,4.8,29.92,NNE,23,0.0,0.0,53,0.00,,,0.00,WUHU216HW,2013-02-06 01:45:00,
2013-02-05 20:50:00,19.4,4.6,29.92,NNE,23,0.0,0.0,52,0.00,,,0.00,WUHU216HW,2013-02-06 01:50:00,
2013-02-05 20:55:00,19.4,4.6,29.92,NNE,23,0.0,0.0,52,0.00,,,0.00,WUHU216HW,2013-02-06 01:55:00,
2013-02-05 21:00:00,19.6,4.8,29.92,NNE,23,0.0,0.0,52,0.00,,,0.00,WUHU216HW,2013-02-06 02:00:00,
2013-02-05 21:05:00,19.8,5.3,29.92,NNE,23,0.0,0.0,53,0.00,,,0.00,WUHU216HW,2013-02-06 02:05:00,
2013-02-05 21:10:00,20.0,5.0,29.92,NNE,23,0.0,0.0,52,0.00,,,0.00,WUHU216HW,2013-02-06 02:10:00,
2013-02-05 21:15:00,19.8,4.5,29.92,NNE,23,0.0,0.0,51,0.00,,,0.00,WUHU216HW,2013-02-06 02:15:00,
2013-02-05 21:20:00,20.0,5.0,29.92,NNE,23,0.0,0.0,52,0.00,,,0.00,WUHU216HW,2013-02-06 02:20:00,
2013-02-05 21:25:00,20.0,4.7,29.92,NNE,23,0.0,0.0,51,0.00,,,0.00,WUHU216HW,2013-02-06 02:25:00,
2013-02-05 21:31:00,20.2,4.9,29.92,NNE,23,0.0,0.0,51,0.00,,,0.00,WUHU216HW,2013-02-06 02:31:00,
2013-02-05 21:36:00,20.3,5.1,29.92,NNE,23,0.0,0.0,51,0.00,,,0.00,WUHU216HW,2013-02-06 02:36:00,
2013-02-05 21:41:00,20.3,5.4,29.92,NNE,23,0.0,0.0,52,0.00,,,0.00,WUHU216HW,2013-02-06 02:41:00,
2013-02-05 21:47:00,20.3,5.1,29.92,North,0,0.0,0.0,51,0.00,,,0.00,WUHU216HW,2013-02-06 02:47:00,
2013-02-05 21:52:00,20.5,5.1,29.92,North,0,0.0,0.0,51,0.00,,,0.00,WUHU216HW,2013-02-06 02:52:00,
2013-02-05 21:57:00,20.5,5.1,29.92,NNE,23,0.0,0.0,51,0.00,,,0.00,WUHU216HW,2013-02-06 02:57:00,
2013-02-05 22:01:00,20.5,5.1,29.92,NNE,23,0.0,0.0,51,0.00,,,0.00,WUHU216HW,2013-02-06 03:01:00,
2013-02-05 22:06:00,20.5,5.1,29.92,NNE,23,0.0,0.0,51,0.00,,,0.00,WUHU216HW,2013-02-06 03:06:00,
2013-02-05 22:11:00,20.5,5.1,29.92,NNE,23,0.0,0.0,51,0.00,,,0.00,WUHU216HW,2013-02-06 03:11:00,
2013-02-05 22:17:00,20.5,5.1,29.92,NNE,23,0.0,0.0,51,0.00,,,0.00,WUHU216HW,2013-02-06 03:17:00,
2013-02-05 22:22:00,20.7,5.3,29.91,NNE,23,0.0,0.0,51,0.00,,,0.00,WUHU216HW,2013-02-06 03:22:00,
2013-02-05 22:27:00,20.7,5.3,29.92,NNE,23,0.0,0.0,51,0.00,,,0.00,WUHU216HW,2013-02-06 03:27:00,
2013-02-05 22:32:00,20.7,5.0,29.91,NNE,23,0.0,0.0,50,0.00,,,0.00,WUHU216HW,2013-02-06 03:32:00,
2013-02-05 22:37:00,20.7,5.0,29.91,NNE,23,0.0,0.0,50,0.00,,,0.00,WUHU216HW,2013-02-06 03:37:00,
2013-02-05 22:42:00,20.7,5.0,29.91,WSW,248,0.0,0.0,50,0.00,,,0.00,WUHU216HW,2013-02-06 03:42:00,
2013-02-05 22:47:00,20.7,5.0,29.91,WSW,248,0.0,0.0,50,0.00,,,0.00,WUHU216HW,2013-02-06 03:47:00,
2013-02-05 22:52:00,20.5,4.8,29.91,WSW,248,0.0,0.0,50,0.00,,,0.00,WUHU216HW,2013-02-06 03:52:00,
2013-02-05 22:57:00,20.5,4.8,29.90,WSW,248,0.0,0.0,50,0.00,,,0.00,WUHU216HW,2013-02-06 03:57:00,
2013-02-05 23:02:00,20.5,4.8,29.90,WSW,248,0.0,0.0,50,0.00,,,0.00,WUHU216HW,2013-02-06 04:02:00,
2013-02-05 23:07:00,20.5,4.8,29.90,WSW,248,0.0,0.0,50,0.00,,,0.00,WUHU216HW,2013-02-06 04:07:00,
2013-02-05 23:12:00,20.5,4.8,29.90,WSW,248,0.0,0.0,50,0.00,,,0.00,WUHU216HW,2013-02-06 04:12:00,
2013-02-05 23:17:00,20.3,4.6,29.90,WSW,248,0.0,0.0,50,0.00,,,0.00,WUHU216HW,2013-02-06 04:17:00,
2013-02-05 23:22:00,20.2,4.4,29.90,WSW,248,0.0,0.0,50,0.00,,,0.00,WUHU216HW,2013-02-06 04:22:00,
2013-02-05 23:27:00,20.2,4.0,29.90,WSW,248,0.0,0.0,49,0.00,,,0.00,WUHU216HW,2013-02-06 04:27:00,
2013-02-05 23:32:00,20.0,3.8,29.91,WSW,248,0.0,0.0,49,0.00,,,0.00,WUHU216HW,2013-02-06 04:32:00,
2013-02-05 23:37:00,19.8,2.3,29.91,NNE,23,0.0,0.0,46,0.00,,,0.00,WUHU216HW,2013-02-06 04:37:00,
2013-02-05 23:42:00,20.0,1.4,29.91,NE,45,0.0,0.0,44,0.00,,,0.00,WUHU216HW,2013-02-06 04:42:00,
2013-02-05 23:47:00,20.2,2.1,29.91,ENE,68,0.0,0.0,45,0.00,,,0.00,WUHU216HW,2013-02-06 04:47:00,
2013-02-05 23:52:00,20.3,1.8,29.91,NNE,23,0.0,0.0,44,0.00,,,0.00,WUHU216HW,2013-02-06 04:52:00,
2013-02-05 23:57:00,20.5,2.0,29.91,NNE,23,0.0,0.0,44,0.00,,,0.00,WUHU216HW,2013-02-06 04:57:00,